sensor_id;sensor_type;location;lat;lon;timestamp;P1;durP1;ratioP1;P2;durP2;ratioP2
33840;SDS011;20142;28.494;-16.312;2022-12-18T10:21:44;8.10;;;1.70;;
33840;SDS011;20142;28.494;-16.312;2022-12-18T10:27:12;6.50;;;1.63;;
33840;SDS011;20142;28.494;-16.312;2022-12-18T10:32:20;6.45;;;1.10;;
33840;SDS011;20142;28.494;-16.312;2022-12-18T10:37:26;2.65;;;1.70;;
33840;SDS011;20142;28.494;-16.312;2022-12-18T10:42:30;4.18;;;1.33;;
33840;SDS011;20142;28.494;-16.312;2022-12-18T10:47:32;7.93;;;2.08;;
33840;SDS011;20142;28.494;-16.312;2022-12-18T10:52:35;7.78;;;1.98;;
33840;SDS011;20142;28.494;-16.312;2022-12-18T10:57:38;6.20;;;1.83;;
33840;SDS011;20142;28.494;-16.312;2022-12-18T11:02:42;4.15;;;1.00;;
33840;SDS011;20142;28.494;-16.312;2022-12-18T11:07:47;5.50;;;1.20;;
33840;SDS011;20142;28.494;-16.312;2022-12-18T11:12:54;5.93;;;1.13;;
33840;SDS011;20142;28.494;-16.312;2022-12-18T11:17:57;2.53;;;0.93;;
33840;SDS011;20142;28.494;-16.312;2022-12-18T11:23:05;2.35;;;0.88;;
33840;SDS011;20142;28.494;-16.312;2022-12-18T11:39:18;2.70;;;0.75;;
33840;SDS011;20142;28.494;-16.312;2022-12-18T11:50:38;2.80;;;1.00;;
33840;SDS011;20142;28.494;-16.312;2022-12-18T12:18:33;5.60;;;1.15;;
33840;SDS011;20142;28.494;-16.312;2022-12-18T12:23:37;4.03;;;1.05;;
33840;SDS011;20142;28.494;-16.312;2022-12-18T12:39:45;4.13;;;1.15;;
33840;SDS011;20142;28.494;-16.312;2022-12-18T12:44:50;6.15;;;1.00;;
33840;SDS011;20142;28.494;-16.312;2022-12-18T12:49:56;5.07;;;1.05;;
33840;SDS011;20142;28.494;-16.312;2022-12-18T12:55:02;4.90;;;1.42;;
33840;SDS011;20142;28.494;-16.312;2022-12-18T13:00:16;3.70;;;0.95;;
33840;SDS011;20142;28.494;-16.312;2022-12-18T13:10:39;5.88;;;1.55;;
33840;SDS011;20142;28.494;-16.312;2022-12-18T13:15:46;3.83;;;1.48;;
33840;SDS011;20142;28.494;-16.312;2022-12-18T13:26:43;7.90;;;1.45;;
33840;SDS011;20142;28.494;-16.312;2022-12-18T13:36:39;5.55;;;1.50;;
33840;SDS011;20142;28.494;-16.312;2022-12-18T13:41:41;6.03;;;1.33;;
33840;SDS011;20142;28.494;-16.312;2022-12-18T13:46:45;4.85;;;1.60;;
33840;SDS011;20142;28.494;-16.312;2022-12-18T13:51:49;5.35;;;1.65;;
33840;SDS011;20142;28.494;-16.312;2022-12-18T13:56:54;10.20;;;1.63;;
33840;SDS011;20142;28.494;-16.312;2022-12-18T14:01:57;5.40;;;2.13;;
33840;SDS011;20142;28.494;-16.312;2022-12-18T14:07:10;9.55;;;2.00;;
33840;SDS011;20142;28.494;-16.312;2022-12-18T14:12:25;5.82;;;2.13;;
33840;SDS011;20142;28.494;-16.312;2022-12-18T14:17:49;11.93;;;2.42;;
33840;SDS011;20142;28.494;-16.312;2022-12-18T14:23:34;8.65;;;2.90;;
33840;SDS011;20142;28.494;-16.312;2022-12-18T14:28:43;6.65;;;2.28;;
33840;SDS011;20142;28.494;-16.312;2022-12-18T14:33:45;6.13;;;2.50;;
33840;SDS011;20142;28.494;-16.312;2022-12-18T14:38:48;5.78;;;2.00;;
33840;SDS011;20142;28.494;-16.312;2022-12-18T14:43:53;8.27;;;1.80;;
33840;SDS011;20142;28.494;-16.312;2022-12-18T14:48:55;6.45;;;2.30;;
33840;SDS011;20142;28.494;-16.312;2022-12-18T14:53:59;9.07;;;2.40;;
33840;SDS011;20142;28.494;-16.312;2022-12-18T14:59:25;6.15;;;1.50;;
33840;SDS011;20142;28.494;-16.312;2022-12-18T15:09:40;7.88;;;1.42;;
33840;SDS011;20142;28.494;-16.312;2022-12-18T15:15:04;2.53;;;1.05;;
33840;SDS011;20142;28.494;-16.312;2022-12-18T15:20:52;6.10;;;1.58;;
33840;SDS011;20142;28.494;-16.312;2022-12-18T15:26:06;4.75;;;1.05;;
33840;SDS011;20142;28.494;-16.312;2022-12-18T15:36:16;6.65;;;1.27;;
33840;SDS011;20142;28.494;-16.312;2022-12-18T15:41:19;3.40;;;0.95;;
33840;SDS011;20142;28.494;-16.312;2022-12-18T15:46:23;6.93;;;1.20;;
33840;SDS011;20142;28.494;-16.312;2022-12-18T15:51:28;6.03;;;1.23;;
33840;SDS011;20142;28.494;-16.312;2022-12-18T15:56:33;7.95;;;1.77;;
33840;SDS011;20142;28.494;-16.312;2022-12-18T16:01:53;4.82;;;1.17;;
33840;SDS011;20142;28.494;-16.312;2022-12-18T16:06:55;8.60;;;1.48;;
33840;SDS011;20142;28.494;-16.312;2022-12-18T16:11:57;6.13;;;1.20;;
33840;SDS011;20142;28.494;-16.312;2022-12-18T16:17:03;9.23;;;2.60;;
33840;SDS011;20142;28.494;-16.312;2022-12-18T16:22:17;5.72;;;1.30;;
33840;SDS011;20142;28.494;-16.312;2022-12-18T16:27:22;4.25;;;1.15;;
33840;SDS011;20142;28.494;-16.312;2022-12-18T16:32:25;6.15;;;1.25;;
33840;SDS011;20142;28.494;-16.312;2022-12-18T16:37:27;4.05;;;1.00;;
33840;SDS011;20142;28.494;-16.312;2022-12-18T16:42:28;7.53;;;1.10;;
33840;SDS011;20142;28.494;-16.312;2022-12-18T16:47:30;3.17;;;0.93;;
33840;SDS011;20142;28.494;-16.312;2022-12-18T16:52:32;3.58;;;1.13;;
33840;SDS011;20142;28.494;-16.312;2022-12-18T16:57:34;8.88;;;1.13;;
33840;SDS011;20142;28.494;-16.312;2022-12-18T17:02:36;7.55;;;0.90;;
33840;SDS011;20142;28.494;-16.312;2022-12-18T17:07:38;6.05;;;0.70;;
33840;SDS011;20142;28.494;-16.312;2022-12-18T17:12:40;8.48;;;1.20;;
33840;SDS011;20142;28.494;-16.312;2022-12-18T17:17:42;6.80;;;1.00;;
33840;SDS011;20142;28.494;-16.312;2022-12-18T17:22:44;5.50;;;1.65;;
33840;SDS011;20142;28.494;-16.312;2022-12-18T17:27:45;6.03;;;0.82;;
33840;SDS011;20142;28.494;-16.312;2022-12-18T17:32:47;5.65;;;0.90;;
33840;SDS011;20142;28.494;-16.312;2022-12-18T17:37:49;3.42;;;0.75;;
33840;SDS011;20142;28.494;-16.312;2022-12-18T17:42:51;4.28;;;0.70;;
33840;SDS011;20142;28.494;-16.312;2022-12-18T17:47:53;3.15;;;0.60;;
33840;SDS011;20142;28.494;-16.312;2022-12-18T17:52:55;2.88;;;0.70;;
33840;SDS011;20142;28.494;-16.312;2022-12-18T17:57:57;1.83;;;1.10;;
33840;SDS011;20142;28.494;-16.312;2022-12-18T18:02:59;4.93;;;1.10;;
33840;SDS011;20142;28.494;-16.312;2022-12-18T18:08:00;7.38;;;1.20;;
33840;SDS011;20142;28.494;-16.312;2022-12-18T18:13:03;3.95;;;1.20;;
33840;SDS011;20142;28.494;-16.312;2022-12-18T18:18:24;7.82;;;2.10;;
33840;SDS011;20142;28.494;-16.312;2022-12-18T18:23:25;5.25;;;0.88;;
33840;SDS011;20142;28.494;-16.312;2022-12-18T18:28:31;5.78;;;0.95;;
33840;SDS011;20142;28.494;-16.312;2022-12-18T18:33:33;5.40;;;1.20;;
33840;SDS011;20142;28.494;-16.312;2022-12-18T18:38:35;5.10;;;1.30;;
33840;SDS011;20142;28.494;-16.312;2022-12-18T18:43:38;4.80;;;1.00;;
33840;SDS011;20142;28.494;-16.312;2022-12-18T18:48:40;3.45;;;0.90;;
33840;SDS011;20142;28.494;-16.312;2022-12-18T18:53:43;8.23;;;1.00;;
33840;SDS011;20142;28.494;-16.312;2022-12-18T18:58:46;9.15;;;2.28;;
33840;SDS011;20142;28.494;-16.312;2022-12-18T19:03:48;4.00;;;1.50;;
33840;SDS011;20142;28.494;-16.312;2022-12-18T19:08:51;5.78;;;1.10;;
33840;SDS011;20142;28.494;-16.312;2022-12-18T19:13:55;3.55;;;1.27;;
33840;SDS011;20142;28.494;-16.312;2022-12-18T19:18:58;9.07;;;1.33;;
33840;SDS011;20142;28.494;-16.312;2022-12-18T19:24:00;2.83;;;0.80;;
33840;SDS011;20142;28.494;-16.312;2022-12-18T19:29:03;5.93;;;1.10;;
33840;SDS011;20142;28.494;-16.312;2022-12-18T19:34:08;7.55;;;1.15;;
33840;SDS011;20142;28.494;-16.312;2022-12-18T19:39:12;7.15;;;1.45;;
33840;SDS011;20142;28.494;-16.312;2022-12-18T19:44:16;5.43;;;1.38;;
33840;SDS011;20142;28.494;-16.312;2022-12-18T19:49:19;4.30;;;1.60;;
33840;SDS011;20142;28.494;-16.312;2022-12-18T19:54:21;8.60;;;1.75;;
33840;SDS011;20142;28.494;-16.312;2022-12-18T19:59:23;9.38;;;2.35;;
33840;SDS011;20142;28.494;-16.312;2022-12-18T20:04:24;7.88;;;2.80;;
33840;SDS011;20142;28.494;-16.312;2022-12-18T20:09:26;7.97;;;2.83;;
33840;SDS011;20142;28.494;-16.312;2022-12-18T20:14:27;12.32;;;3.85;;
33840;SDS011;20142;28.494;-16.312;2022-12-18T20:19:29;11.13;;;4.10;;
33840;SDS011;20142;28.494;-16.312;2022-12-18T20:24:32;5.97;;;3.42;;
33840;SDS011;20142;28.494;-16.312;2022-12-18T20:29:33;9.27;;;4.57;;
33840;SDS011;20142;28.494;-16.312;2022-12-18T20:34:35;10.25;;;4.05;;
33840;SDS011;20142;28.494;-16.312;2022-12-18T20:39:37;10.00;;;3.80;;
33840;SDS011;20142;28.494;-16.312;2022-12-18T20:44:38;8.05;;;4.00;;
33840;SDS011;20142;28.494;-16.312;2022-12-18T20:49:40;9.50;;;5.20;;
33840;SDS011;20142;28.494;-16.312;2022-12-18T20:54:42;9.32;;;4.70;;
33840;SDS011;20142;28.494;-16.312;2022-12-18T20:59:44;6.97;;;3.13;;
33840;SDS011;20142;28.494;-16.312;2022-12-18T21:04:46;8.13;;;4.68;;
33840;SDS011;20142;28.494;-16.312;2022-12-18T21:09:47;11.40;;;5.32;;
33840;SDS011;20142;28.494;-16.312;2022-12-18T21:14:49;21.23;;;12.45;;
33840;SDS011;20142;28.494;-16.312;2022-12-18T21:19:51;13.82;;;7.15;;
33840;SDS011;20142;28.494;-16.312;2022-12-18T21:24:53;10.10;;;4.20;;
33840;SDS011;20142;28.494;-16.312;2022-12-18T21:29:54;10.52;;;4.85;;
33840;SDS011;20142;28.494;-16.312;2022-12-18T21:34:56;8.25;;;5.10;;
33840;SDS011;20142;28.494;-16.312;2022-12-18T21:39:58;9.10;;;3.70;;
33840;SDS011;20142;28.494;-16.312;2022-12-18T21:44:59;4.63;;;3.20;;
33840;SDS011;20142;28.494;-16.312;2022-12-18T21:50:01;10.13;;;3.47;;
33840;SDS011;20142;28.494;-16.312;2022-12-18T21:55:03;5.60;;;3.55;;
33840;SDS011;20142;28.494;-16.312;2022-12-18T22:00:08;6.35;;;3.88;;
33840;SDS011;20142;28.494;-16.312;2022-12-18T22:05:13;7.63;;;2.90;;
33840;SDS011;20142;28.494;-16.312;2022-12-18T22:10:14;5.78;;;3.38;;
33840;SDS011;20142;28.494;-16.312;2022-12-18T22:15:16;5.60;;;2.83;;
33840;SDS011;20142;28.494;-16.312;2022-12-18T22:20:18;7.47;;;3.05;;
33840;SDS011;20142;28.494;-16.312;2022-12-18T22:25:19;6.82;;;2.60;;
33840;SDS011;20142;28.494;-16.312;2022-12-18T22:30:21;4.65;;;2.55;;
33840;SDS011;20142;28.494;-16.312;2022-12-18T22:35:22;5.88;;;2.53;;
33840;SDS011;20142;28.494;-16.312;2022-12-18T22:40:25;9.48;;;3.67;;
33840;SDS011;20142;28.494;-16.312;2022-12-18T22:45:28;6.65;;;4.03;;
33840;SDS011;20142;28.494;-16.312;2022-12-18T22:50:29;6.55;;;4.15;;
33840;SDS011;20142;28.494;-16.312;2022-12-18T22:55:33;7.68;;;4.22;;
33840;SDS011;20142;28.494;-16.312;2022-12-18T23:00:34;6.90;;;5.38;;
33840;SDS011;20142;28.494;-16.312;2022-12-18T23:05:36;9.98;;;3.92;;
33840;SDS011;20142;28.494;-16.312;2022-12-18T23:10:38;6.93;;;3.00;;
33840;SDS011;20142;28.494;-16.312;2022-12-18T23:15:40;8.52;;;3.55;;
33840;SDS011;20142;28.494;-16.312;2022-12-18T23:20:42;6.47;;;3.30;;
33840;SDS011;20142;28.494;-16.312;2022-12-18T23:25:44;5.97;;;3.42;;
33840;SDS011;20142;28.494;-16.312;2022-12-18T23:30:46;8.27;;;3.38;;
33840;SDS011;20142;28.494;-16.312;2022-12-18T23:35:47;10.07;;;3.15;;
33840;SDS011;20142;28.494;-16.312;2022-12-18T23:40:49;5.43;;;2.90;;
33840;SDS011;20142;28.494;-16.312;2022-12-18T23:45:51;9.45;;;2.60;;
33840;SDS011;20142;28.494;-16.312;2022-12-18T23:50:53;6.53;;;2.97;;
33840;SDS011;20142;28.494;-16.312;2022-12-18T23:55:55;6.93;;;3.15;;
